YWVL weather

Woodville Airport
New South Wales, Australia

Public forecast

Using degrees Celsius for public forecast. Weather courtesy of forecast.io.

METAR (pilot weather report)

Closest report is Tamworth Airport, 61.7 nm (114.2 km) SW. Retrieved 2019/02/18 05:30 UTC (27 minutes ago):

YSTW 180530Z AUTO 05004KT 360V120 9999 // NCD 36/06 Q1007 RF00.0/000.0

TAF (pilot weather forecast)

Forecast is more than 12 hours old.

Closest forecast is Tamworth Airport, 61.7 nm (114.2 km) SW. Retrieved 2019/02/17 00:36 UTC (1 day ago):

TAF TAF YSTW 172252Z 1800/1818 28010KT CAVOK